Time;durP1;ratioP1;P1;durP2;ratioP2;P2;SDS_P1;SDS_P2;PMS_P1;PMS_P2;Temp;Humidity;BMP_temperature;BMP_pressure;BME280_temperature;BME280_humidity;BME280_pressure;Samples;Min_cycle;Max_cycle;Signal;HPM_P1;HPM_P2
2023/04/26 00:02:10;;;;;;;;;19.50;18.50;;;;;10.22;53.49;101406.13;5057385;28;45394;-71
2023/04/26 00:04:39;;;;;;;;;19.00;17.50;;;;;10.35;54.10;101423.81;5067577;27;45504;-74
2023/04/26 00:07:06;;;;;;;;;18.00;18.00;;;;;10.35;53.25;101421.19;5063502;27;45374;-73
2023/04/26 00:09:32;;;;;;;;;20.25;16.00;;;;;10.41;53.51;101431.75;5059944;27;45541;-74
2023/04/26 00:11:58;;;;;;;;;19.00;16.50;;;;;10.40;53.50;101435.22;5059094;27;45546;-70
2023/04/26 00:14:24;;;;;;;;;19.25;17.00;;;;;10.29;53.67;101424.59;5092180;27;45401;-70
2023/04/26 00:16:50;;;;;;;;;15.25;13.75;;;;;10.34;54.29;101427.28;5059306;27;45535;-74
2023/04/26 00:19:16;;;;;;;;;18.75;18.00;;;;;10.25;54.27;101427.09;5058671;27;45978;-71
2023/04/26 00:21:42;;;;;;;;;18.00;16.25;;;;;10.15;54.98;101413.00;5063514;27;45502;-77
2023/04/26 00:24:08;;;;;;;;;21.00;16.50;;;;;10.04;55.14;101393.69;5069659;27;45351;-73
2023/04/26 00:26:34;;;;;;;;;21.50;20.75;;;;;10.01;54.76;101402.34;5082080;27;46566;-71
2023/04/26 00:29:00;;;;;;;;;14.75;13.75;;;;;10.08;54.83;101416.41;5071284;27;46066;-69
2023/04/26 00:31:26;;;;;;;;;19.75;17.75;;;;;10.02;54.85;101393.66;5070829;27;45536;-69
2023/04/26 00:33:52;;;;;;;;;22.25;19.75;;;;;10.06;55.11;101395.47;5068930;27;45486;-70
2023/04/26 00:36:18;;;;;;;;;17.25;16.25;;;;;9.81;55.12;101362.78;5074626;27;45715;-73
2023/04/26 00:38:47;;;;;;;;;19.25;17.00;;;;;10.10;55.15;101398.97;5072183;27;46481;-73
2023/04/26 00:41:13;;;;;;;;;11.50;11.00;;;;;10.08;54.76;101395.47;5063955;27;45373;-74
2023/04/26 00:43:39;;;;;;;;;15.50;13.75;;;;;10.07;55.29;101402.44;5064616;28;45550;-75
2023/04/26 00:46:06;;;;;;;;;17.50;16.25;;;;;10.11;55.35;101398.13;5062679;27;45674;-74
2023/04/26 00:48:33;;;;;;;;;21.25;17.25;;;;;10.07;55.21;101388.47;5055104;27;45560;-75
2023/04/26 00:51:00;;;;;;;;;17.00;15.50;;;;;10.17;54.86;101396.47;5060204;28;45922;-75
2023/04/26 00:53:26;;;;;;;;;20.25;17.75;;;;;10.13;54.97;101381.59;5063960;27;45485;-76
2023/04/26 00:55:53;;;;;;;;;17.25;16.00;;;;;10.06;55.50;101377.13;5055724;27;45514;-74
2023/04/26 00:58:18;;;;;;;;;21.25;16.75;;;;;10.11;55.10;101385.94;5058937;27;46276;-75
2023/04/26 01:00:44;;;;;;;;;21.00;16.50;;;;;10.06;54.52;101379.75;5054214;28;45468;-75
2023/04/26 01:03:10;;;;;;;;;17.75;16.25;;;;;10.09;54.65;101374.56;5054845;28;45497;-76
2023/04/26 01:05:37;;;;;;;;;21.75;17.00;;;;;10.15;54.27;101385.09;5088379;27;45966;-74
2023/04/26 01:08:03;;;;;;;;;18.75;13.75;;;;;10.05;54.05;101353.53;5054986;27;45867;-74
2023/04/26 01:10:31;;;;;;;;;22.25;17.50;;;;;10.09;54.80;101366.69;5055237;27;45371;-73
2023/04/26 01:12:57;;;;;;;;;18.75;17.50;;;;;9.97;54.31;101354.31;5055283;27;45543;-73
2023/04/26 01:15:32;;;;;;;;;23.50;15.75;;;;;9.93;54.14;101346.41;5090898;27;45530;-74
2023/04/26 01:18:05;;;;;;;;;18.25;16.50;;;;;9.98;54.25;101361.28;5057107;28;46320;-72
2023/04/26 01:20:47;;;;;;;;;22.00;16.50;;;;;9.43;54.54;101282.00;5055162;28;45351;-73
2023/04/26 01:23:27;;;;;;;;;19.00;16.00;;;;;9.72;54.24;101333.88;5055824;27;45664;-70
2023/04/26 01:25:59;;;;;;;;;17.75;15.00;;;;;9.84;54.17;101354.09;5055623;28;45454;-73
2023/04/26 01:28:25;;;;;;;;;19.75;15.75;;;;;9.61;53.94;101302.34;5070149;27;45704;-71
2023/04/26 01:30:55;;;;;;;;;19.50;17.00;;;;;9.63;53.87;101307.56;5075437;27;45526;-75
2023/04/26 01:33:25;;;;;;;;;19.00;17.25;;;;;9.48;53.91;101290.81;5091021;27;45493;-74
2023/04/26 01:35:58;;;;;;;;;15.25;12.50;;;;;9.77;54.37;101337.44;5075129;27;45538;-75
2023/04/26 01:38:24;;;;;;;;;12.75;12.25;;;;;9.79;54.28;101334.84;5077440;27;45474;-71
2023/04/26 01:40:50;;;;;;;;;17.25;15.25;;;;;9.74;53.91;101335.66;5090558;27;45329;-71
2023/04/26 01:43:18;;;;;;;;;24.00;16.25;;;;;9.73;53.75;101333.91;5075297;28;45474;-70
2023/04/26 01:45:47;;;;;;;;;16.00;13.50;;;;;9.73;53.91;101340.88;5075710;27;45489;-69
2023/04/26 01:48:13;;;;;;;;;15.25;12.50;;;;;9.69;54.29;101339.94;5075126;27;46847;-73
2023/04/26 01:50:38;;;;;;;;;17.00;13.50;;;;;9.68;54.76;101338.19;5074939;28;45480;-72
2023/04/26 01:53:04;;;;;;;;;15.00;13.50;;;;;9.58;54.49;101328.44;5075048;28;45446;-74
2023/04/26 01:55:30;;;;;;;;;14.50;10.25;;;;;9.62;54.08;101325.00;5073835;28;45450;-68
2023/04/26 01:57:55;;;;;;;;;14.75;13.75;;;;;9.69;54.20;101341.69;5075067;27;45513;-71
2023/04/26 02:00:21;;;;;;;;;15.00;13.25;;;;;9.64;54.07;101332.91;5090047;27;45398;-72
2023/04/26 02:02:46;;;;;;;;;20.50;14.50;;;;;9.79;54.15;101347.94;5073413;27;45842;-72
2023/04/26 02:05:12;;;;;;;;;16.00;11.00;;;;;9.82;54.26;101348.84;5077522;27;45428;-70
2023/04/26 02:07:38;;;;;;;;;13.50;12.50;;;;;9.65;54.86;101330.28;5074172;28;45437;-71
2023/04/26 02:10:04;;;;;;;;;16.50;15.50;;;;;9.67;54.54;101331.19;5074444;28;45343;-72
2023/04/26 02:12:29;;;;;;;;;18.50;16.00;;;;;9.69;54.53;101329.47;5076686;28;45422;-69
2023/04/26 02:14:55;;;;;;;;;18.75;14.50;;;;;9.56;54.92;101327.53;5076599;28;45746;-71
2023/04/26 02:17:21;;;;;;;;;17.25;16.00;;;;;9.39;54.92;101306.34;5090633;27;46459;-69
2023/04/26 02:19:47;;;;;;;;;17.50;15.50;;;;;9.55;54.91;101352.81;5072805;27;45919;-74
2023/04/26 02:22:12;;;;;;;;;17.50;15.00;;;;;9.45;55.13;101336.97;5089867;27;45496;-71
2023/04/26 02:24:38;;;;;;;;;17.50;12.50;;;;;9.20;55.18;101325.19;5074327;27;45578;-70
2023/04/26 02:27:04;;;;;;;;;15.75;13.75;;;;;9.24;55.69;101338.34;5062355;27;46586;-72
2023/04/26 02:29:30;;;;;;;;;12.50;10.50;;;;;9.23;55.87;101340.91;5077916;27;45857;-71
2023/04/26 02:31:57;;;;;;;;;18.00;15.50;;;;;9.23;55.91;101340.91;5078034;27;45581;-69
2023/04/26 02:34:22;;;;;;;;;15.75;15.00;;;;;9.20;55.73;101349.59;5093569;27;45362;-71
2023/04/26 02:36:48;;;;;;;;;16.75;11.00;;;;;9.33;55.51;101353.31;5080715;27;46053;-72
2023/04/26 02:39:14;;;;;;;;;15.25;12.75;;;;;9.13;55.73;101321.59;5090321;27;45493;-70
2023/04/26 02:41:39;;;;;;;;;13.00;10.25;;;;;9.21;55.66;101338.31;5090359;27;45393;-69
2023/04/26 02:44:05;;;;;;;;;17.00;14.50;;;;;9.24;55.70;101327.88;5111212;27;45559;-69
2023/04/26 02:46:30;;;;;;;;;16.25;11.50;;;;;9.18;55.59;101317.31;5096788;27;46438;-69
2023/04/26 02:48:56;;;;;;;;;18.25;13.25;;;;;9.26;55.59;101334.03;5070651;28;45461;-68
2023/04/26 02:51:22;;;;;;;;;12.25;12.25;;;;;9.35;55.79;101333.31;5071309;28;45469;-71
2023/04/26 02:53:47;;;;;;;;;18.25;15.50;;;;;9.34;55.48;101337.63;5078510;27;45442;-71
2023/04/26 02:56:13;;;;;;;;;17.00;13.25;;;;;8.59;56.00;101229.25;5078901;28;45486;-70
2023/04/26 02:58:38;;;;;;;;;13.75;11.25;;;;;9.09;56.19;101322.41;5063531;28;45442;-70
2023/04/26 03:01:04;;;;;;;;;16.25;13.25;;;;;9.15;56.18;101332.97;5078347;28;45622;-73
2023/04/26 03:03:30;;;;;;;;;15.75;15.75;;;;;9.17;55.97;101330.38;5093528;27;45734;-69
2023/04/26 03:05:55;;;;;;;;;18.00;15.75;;;;;8.99;56.05;101305.66;5077521;27;45401;-71
2023/04/26 03:08:21;;;;;;;;;17.25;11.50;;;;;9.01;56.00;101318.78;5079173;28;45393;-70
2023/04/26 03:10:47;;;;;;;;;13.75;12.25;;;;;8.92;56.15;101332.53;5076490;27;45480;-70
2023/04/26 03:13:12;;;;;;;;;18.25;14.75;;;;;8.93;56.42;101346.50;5093910;27;45361;-69
2023/04/26 03:15:38;;;;;;;;;16.50;16.25;;;;;8.82;56.63;101336.72;5095639;27;47101;-74
2023/04/26 03:18:04;;;;;;;;;19.50;17.50;;;;;8.78;56.42;101326.19;5080214;28;45714;-71
2023/04/26 03:20:29;;;;;;;;;18.00;16.25;;;;;8.65;56.71;101318.13;5078158;28;45457;-69
2023/04/26 03:22:55;;;;;;;;;18.75;17.00;;;;;8.73;56.99;101328.69;5093389;27;45413;-69
2023/04/26 03:25:20;;;;;;;;;15.00;13.75;;;;;8.67;57.37;101331.22;5092877;27;46448;-70
2023/04/26 03:27:46;;;;;;;;;17.25;14.50;;;;;8.56;57.43;101328.38;5079281;27;45429;-72
2023/04/26 03:30:12;;;;;;;;;15.25;15.25;;;;;8.53;57.33;101336.16;5113319;27;45362;-75
2023/04/26 03:32:38;;;;;;;;;16.75;15.00;;;;;8.58;57.39;101338.88;5110471;27;45619;-72
2023/04/26 03:35:04;;;;;;;;;16.50;15.75;;;;;8.54;57.37;101313.53;5075295;28;47939;-73
2023/04/26 03:37:29;;;;;;;;;16.00;16.00;;;;;8.59;57.31;101340.63;5074294;28;45569;-73
2023/04/26 03:39:55;;;;;;;;;14.25;13.25;;;;;8.62;57.54;101338.97;5076912;28;45394;-71
2023/04/26 03:42:21;;;;;;;;;17.50;15.50;;;;;8.58;57.82;101328.41;5077170;28;45491;-69
2023/04/26 03:44:46;;;;;;;;;18.50;12.50;;;;;8.56;57.13;101311.84;5065483;27;46609;-70
2023/04/26 03:47:14;;;;;;;;;14.00;13.75;;;;;8.53;57.51;101325.72;5064329;27;45524;-71
2023/04/26 03:49:40;;;;;;;;;17.00;15.00;;;;;8.63;57.45;101332.00;5064714;27;45362;-71
2023/04/26 03:52:06;;;;;;;;;15.75;15.00;;;;;8.63;57.62;101306.75;5078816;28;45428;-70
2023/04/26 03:54:31;;;;;;;;;18.50;16.25;;;;;8.66;57.20;101316.38;5072050;27;47962;-69
2023/04/26 03:56:57;;;;;;;;;17.25;15.25;;;;;8.67;57.09;101326.88;5089477;27;45346;-70
2023/04/26 03:59:22;;;;;;;;;22.75;19.50;;;;;8.68;57.61;101328.66;5067093;28;45376;-71
2023/04/26 04:01:48;;;;;;;;;21.25;15.50;;;;;8.53;57.16;101307.44;5059219;27;45500;-69
2023/04/26 04:04:13;;;;;;;;;15.75;15.25;;;;;8.50;57.60;101312.63;5055942;27;45581;-69
2023/04/26 04:06:39;;;;;;;;;21.50;17.50;;;;;8.43;57.64;101302.91;5058339;27;45511;-68
2023/04/26 04:09:05;;;;;;;;;17.50;14.25;;;;;8.46;57.71;101321.22;5061986;27;45552;-70
2023/04/26 04:11:30;;;;;;;;;20.50;17.50;;;;;8.53;57.17;101324.84;5070180;27;45567;-70
2023/04/26 04:13:56;;;;;;;;;20.50;17.25;;;;;8.45;57.58;101309.03;5069263;27;46188;-70
2023/04/26 04:16:22;;;;;;;;;24.75;20.25;;;;;8.53;57.64;101324.84;5088887;27;45596;-69
2023/04/26 04:18:54;;;;;;;;;26.00;18.00;;;;;8.56;57.08;101335.34;5057304;27;45535;-72
2023/04/26 04:21:21;;;;;;;;;20.00;17.00;;;;;8.57;57.75;101331.91;5055722;27;45484;-70
2023/04/26 04:23:46;;;;;;;;;15.00;10.25;;;;;8.39;57.91;101304.53;5058787;27;45368;-69
2023/04/26 04:26:13;;;;;;;;;18.50;15.50;;;;;8.55;57.63;101325.75;5062519;27;45368;-72
2023/04/26 04:28:43;;;;;;;;;17.25;15.75;;;;;8.57;57.73;101332.78;5056017;27;45378;-67
2023/04/26 04:31:11;;;;;;;;;20.25;15.50;;;;;8.51;57.52;101316.09;5055886;28;45511;-74
2023/04/26 04:33:39;;;;;;;;;16.50;13.75;;;;;8.48;57.25;101296.03;5067660;27;45575;-72
2023/04/26 04:36:05;;;;;;;;;18.50;17.00;;;;;8.45;57.51;101307.31;5069048;27;45386;-69
2023/04/26 04:38:32;;;;;;;;;21.50;18.25;;;;;8.47;57.67;101316.03;5066094;28;45532;-69
2023/04/26 04:40:57;;;;;;;;;17.25;17.00;;;;;8.51;57.19;101323.94;5058271;27;45820;-69
2023/04/26 04:43:23;;;;;;;;;17.00;16.25;;;;;8.47;58.01;101333.41;5059260;28;46413;-72
2023/04/26 04:45:49;;;;;;;;;19.25;18.00;;;;;8.40;57.48;101314.16;5056914;27;45406;-69
2023/04/26 04:48:15;;;;;;;;;16.50;16.50;;;;;8.47;57.64;101331.72;5056473;27;45795;-68
2023/04/26 04:50:41;;;;;;;;;18.00;16.00;;;;;8.46;57.41;101324.72;5056532;27;45658;-69
2023/04/26 04:53:08;;;;;;;;;20.50;18.00;;;;;8.44;57.17;101321.19;5072503;27;48154;-71
2023/04/26 04:55:34;;;;;;;;;20.50;15.75;;;;;8.37;57.45;101319.25;5072095;27;45596;-72
2023/04/26 04:58:00;;;;;;;;;18.25;17.50;;;;;8.48;57.74;101336.06;5069260;27;45667;-68
2023/04/26 05:00:26;;;;;;;;;17.75;14.75;;;;;8.45;57.95;101332.53;5056577;28;45646;-74
2023/04/26 05:02:52;;;;;;;;;20.75;18.75;;;;;8.43;57.96;101329.88;5059671;28;45749;-70
2023/04/26 05:05:17;;;;;;;;;82.33;60.67;;;;;8.40;58.06;101324.59;5063774;27;45530;-72
2023/04/26 05:07:43;;;;;;;;;17.50;16.25;;;;;8.41;57.28;101317.66;5056984;27;45312;-70
2023/04/26 05:10:09;;;;;;;;;20.25;17.75;;;;;8.44;57.76;101320.31;5054727;27;45323;-71
2023/04/26 05:12:35;;;;;;;;;56.00;33.00;;;;;8.41;59.12;101321.13;5062110;27;45417;-79
2023/04/26 05:15:01;;;;;;;;;92.00;67.67;;;;;8.50;60.74;101312.63;5092914;27;45451;-70
2023/04/26 05:17:26;;;;;;;;;72.75;53.00;;;;;8.63;58.92;101319.81;5074097;27;45369;-69
2023/04/26 05:19:52;;;;;;;;;38.75;32.25;;;;;8.53;58.64;101306.56;5068309;27;45528;-78
2023/04/26 05:22:26;;;;;;;;;60.50;45.25;;;;;8.71;59.87;101327.81;5067185;27;47254;-80
2023/04/26 05:24:58;;;;;;;;;61.50;43.75;;;;;8.82;59.28;101314.94;5055209;27;45583;-70
2023/04/26 05:27:24;;;;;;;;;33.25;27.50;;;;;8.79;57.76;101305.31;5054572;27;45581;-69
2023/04/26 05:29:50;;;;;;;;;30.75;25.50;;;;;8.81;59.25;101316.69;5054850;27;45850;-78
2023/04/26 05:32:15;;;;;;;;;34.00;30.00;;;;;8.96;57.79;101339.59;5059655;27;45924;-71
2023/04/26 05:34:41;;;;;;;;;37.75;29.50;;;;;8.98;58.20;101327.44;5068003;27;45560;-78
2023/04/26 05:37:06;;;;;;;;;25.25;16.75;;;;;9.03;57.52;101312.72;5054571;27;45442;-75
2023/04/26 05:39:32;;;;;;;;;29.00;22.75;;;;;8.96;57.55;101323.03;5054412;27;45542;-70
2023/04/26 05:41:57;;;;;;;;;36.25;29.75;;;;;9.11;58.06;101326.81;5060067;28;46217;-73
2023/04/26 05:44:23;;;;;;;;;29.25;23.50;;;;;9.24;58.16;101321.78;5054132;27;45505;-75
2023/04/26 05:46:49;;;;;;;;;26.50;23.00;;;;;9.40;57.99;101333.38;5053510;28;45424;-78
2023/04/26 05:49:14;;;;;;;;;23.25;20.25;;;;;9.33;56.62;101335.00;5054889;28;45588;-71
2023/04/26 05:51:40;;;;;;;;;26.25;22.00;;;;;9.33;56.23;101337.63;5068259;28;47337;-78
2023/04/26 05:54:06;;;;;;;;;19.50;19.25;;;;;9.33;56.82;101338.50;5065793;28;45316;-82
2023/04/26 05:56:31;;;;;;;;;22.25;19.75;;;;;9.29;56.41;101326.22;5075030;27;45476;-82
2023/04/26 05:58:57;;;;;;;;;25.25;18.50;;;;;9.28;56.69;101332.31;5074665;27;45342;-83
2023/04/26 06:01:22;;;;;;;;;22.75;19.00;;;;;9.14;56.67;101325.97;5089695;27;47866;-81
2023/04/26 06:03:48;;;;;;;;;22.25;19.25;;;;;9.15;57.53;101332.97;5073911;28;45493;-76
2023/04/26 06:06:14;;;;;;;;;18.75;17.75;;;;;9.27;56.13;101340.13;5073403;28;45775;-70
2023/04/26 06:08:41;;;;;;;;;18.50;17.00;;;;;9.26;56.07;101334.03;5092083;27;45451;-74
2023/04/26 06:11:07;;;;;;;;;23.75;20.50;;;;;9.26;55.69;101335.78;5076497;27;45541;-74
2023/04/26 06:13:33;;;;;;;;;25.50;19.75;;;;;9.16;56.16;101339.97;5071565;28;45722;-74
2023/04/26 06:15:59;;;;;;;;;22.75;18.50;;;;;9.20;56.39;101362.66;5072156;27;45843;-70
2023/04/26 06:18:25;;;;;;;;;19.25;19.25;;;;;9.12;56.29;101345.97;5072420;28;45437;-70
2023/04/26 06:20:50;;;;;;;;;19.50;18.50;;;;;9.19;56.52;101350.47;5073373;28;46409;-74
2023/04/26 06:23:16;;;;;;;;;18.25;16.75;;;;;9.11;56.26;101329.44;5075775;28;45449;-67
2023/04/26 06:25:44;;;;;;;;;19.50;18.50;;;;;9.23;55.83;101349.66;5088070;27;45416;-72
2023/04/26 06:28:13;;;;;;;;;18.50;15.75;;;;;9.19;56.72;101352.19;5060108;27;45364;-69
2023/04/26 06:30:40;;;;;;;;;24.00;18.75;;;;;9.22;56.57;101355.72;5059582;28;47047;-71
2023/04/26 06:33:05;;;;;;;;;20.75;16.50;;;;;9.13;56.77;101324.19;5055707;28;45466;-68
2023/04/26 06:35:31;;;;;;;;;19.25;16.75;;;;;9.28;56.61;101337.56;5057047;28;45505;-70
2023/04/26 06:37:56;;;;;;;;;25.50;20.00;;;;;9.30;56.17;101328.00;5057286;28;45577;-73
2023/04/26 06:40:22;;;;;;;;;26.75;20.50;;;;;9.15;56.64;101314.66;5055717;27;46081;-73
2023/04/26 06:42:47;;;;;;;;;20.00;18.25;;;;;9.29;56.46;101322.75;5052383;27;45449;-73
2023/04/26 06:45:13;;;;;;;;;32.00;22.75;;;;;9.41;56.67;101341.25;5051580;28;45548;-69
2023/04/26 06:47:39;;;;;;;;;23.50;21.75;;;;;9.47;56.61;101343.97;5052348;27;45523;-70
2023/04/26 06:50:05;;;;;;;;;26.75;22.50;;;;;9.57;56.69;101341.50;5058391;28;46008;-70
2023/04/26 06:52:31;;;;;;;;;22.75;20.75;;;;;9.64;56.18;101344.22;5066628;28;45484;-70
2023/04/26 06:54:59;;;;;;;;;22.25;21.00;;;;;9.64;55.73;101328.53;5074300;27;45560;-70
2023/04/26 06:57:25;;;;;;;;;22.50;17.75;;;;;9.54;56.03;101306.59;5055750;28;46568;-69
2023/04/26 06:59:51;;;;;;;;;26.00;22.25;;;;;9.73;55.74;101346.13;5052377;27;45664;-73
2023/04/26 07:02:17;;;;;;;;;24.25;22.00;;;;;9.77;55.88;101335.72;5052575;27;45457;-71
2023/04/26 07:04:42;;;;;;;;;25.75;21.50;;;;;9.77;55.05;101337.44;5053275;27;45560;-74
2023/04/26 07:07:10;;;;;;;;;28.25;24.75;;;;;9.97;55.30;101349.09;5052458;28;45541;-75
2023/04/26 07:09:36;;;;;;;;;20.25;18.25;;;;;10.12;55.02;101330.09;5065833;28;46727;-73
2023/04/26 07:12:02;;;;;;;;;19.75;17.00;;;;;10.40;54.49;101346.19;5080743;27;45417;-70
2023/04/26 07:14:28;;;;;;;;;21.25;17.25;;;;;10.59;54.12;101334.19;5080764;27;45292;-69
2023/04/26 07:16:53;;;;;;;;;26.50;18.75;;;;;10.85;53.81;101342.34;5077812;27;45457;-68
2023/04/26 07:19:19;;;;;;;;;23.75;18.75;;;;;10.99;53.28;101350.34;5074463;27;47988;-70
2023/04/26 07:21:44;;;;;;;;;20.75;16.75;;;;;11.11;53.33;101352.22;5064431;27;45483;-68
2023/04/26 07:24:12;;;;;;;;;25.25;20.00;;;;;11.18;52.40;101346.16;5107366;27;45359;-70
2023/04/26 07:26:37;;;;;;;;;19.75;19.00;;;;;11.01;52.88;101335.53;5077923;27;45724;-68
2023/04/26 07:29:03;;;;;;;;;18.00;15.25;;;;;11.26;53.01;101352.34;5077672;27;46312;-69
2023/04/26 07:31:30;;;;;;;;;19.00;16.00;;;;;11.41;51.11;101354.22;5080086;27;45338;-71
2023/04/26 07:33:56;;;;;;;;;16.00;15.75;;;;;11.33;51.37;101340.19;5076655;27;45775;-69
2023/04/26 07:36:22;;;;;;;;;21.50;15.75;;;;;11.25;51.33;101329.63;5091656;27;45463;-71
2023/04/26 07:38:47;;;;;;;;;20.25;15.75;;;;;11.24;51.06;101322.59;5074582;27;47461;-73
2023/04/26 07:41:15;;;;;;;;;18.25;15.25;;;;;11.28;50.89;101328.78;5079836;27;45406;-69
2023/04/26 07:43:40;;;;;;;;;15.75;15.75;;;;;11.27;50.71;101322.66;5077509;27;45596;-73
2023/04/26 07:46:06;;;;;;;;;15.50;15.25;;;;;11.27;50.18;101333.16;5075451;27;45543;-74
2023/04/26 07:48:32;;;;;;;;;20.25;14.50;;;;;11.24;50.75;101333.09;5070425;27;46467;-70
2023/04/26 07:51:12;;;;;;;;;16.75;16.00;;;;;11.18;50.38;101336.56;5068219;28;45281;-70
2023/04/26 07:53:38;;;;;;;;;16.75;16.25;;;;;11.13;50.51;101314.66;5076771;27;45483;-72
2023/04/26 07:56:06;;;;;;;;;17.25;16.50;;;;;11.21;50.54;101315.59;5069904;28;45442;-72
2023/04/26 07:58:32;;;;;;;;;22.75;15.00;;;;;11.42;50.69;101319.28;5059323;28;46223;-73
2023/04/26 08:00:59;;;;;;;;;14.25;13.50;;;;;11.65;50.52;101322.94;5057227;27;45423;-74
2023/04/26 08:03:26;;;;;;;;;18.75;17.00;;;;;11.66;50.24;101316.81;5055315;27;45548;-73
2023/04/26 08:05:52;;;;;;;;;23.75;18.25;;;;;11.78;50.13;101333.53;5055227;27;45651;-72
2023/04/26 08:08:18;;;;;;;;;23.00;19.25;;;;;11.70;50.00;101306.34;5055887;27;46271;-71
2023/04/26 08:10:44;;;;;;;;;24.50;17.75;;;;;11.67;49.57;101318.59;5058822;28;45469;-73
2023/04/26 08:13:10;;;;;;;;;20.00;15.25;;;;;11.72;49.40;101310.75;5059068;27;45398;-71
2023/04/26 08:15:36;;;;;;;;;17.00;15.00;;;;;11.84;49.15;101323.94;5058930;27;45464;-71
2023/04/26 08:18:01;;;;;;;;;19.50;18.75;;;;;11.80;49.02;101305.53;5065815;27;48187;-73
2023/04/26 08:20:27;;;;;;;;;23.25;18.75;;;;;11.95;48.73;101323.16;5054458;27;45425;-72
2023/04/26 08:22:56;;;;;;;;;20.25;18.00;;;;;11.97;48.12;101324.03;5053655;28;45410;-74
2023/04/26 08:25:22;;;;;;;;;17.75;15.75;;;;;11.98;49.11;101304.78;5055226;27;45497;-73
2023/04/26 08:27:48;;;;;;;;;23.50;17.00;;;;;12.17;48.31;101309.28;5057104;27;46007;-73
2023/04/26 08:30:13;;;;;;;;;17.25;13.00;;;;;12.29;47.76;101314.59;5058581;27;45440;-70
2023/04/26 08:32:39;;;;;;;;;21.00;17.00;;;;;12.28;48.68;101307.56;5058654;27;45561;-70
2023/04/26 08:35:05;;;;;;;;;16.00;13.50;;;;;12.49;48.51;101298.88;5059645;27;45484;-69
2023/04/26 08:37:31;;;;;;;;;18.50;11.00;;;;;12.61;47.20;101284.91;5067734;27;46409;-70
2023/04/26 08:39:57;;;;;;;;;23.50;17.00;;;;;12.79;47.66;101296.31;5065268;28;45786;-72
2023/04/26 08:42:27;;;;;;;;;17.00;15.00;;;;;12.75;47.31;101310.34;5058959;27;45374;-74
2023/04/26 08:44:53;;;;;;;;;16.50;15.00;;;;;12.69;47.86;101271.78;5055327;27;45698;-69
2023/04/26 08:47:27;;;;;;;;;17.00;14.50;;;;;13.10;48.03;101303.38;5056563;27;45482;-70
2023/04/26 08:50:02;;;;;;;;;15.50;13.75;;;;;13.33;47.13;101306.03;5059914;28;45473;-71
2023/04/26 08:52:29;;;;;;;;;15.75;13.50;;;;;13.33;46.54;101297.28;5075002;28;45588;-71
2023/04/26 08:54:56;;;;;;;;;18.25;13.75;;;;;13.54;46.08;101299.88;5074662;27;45431;-68
2023/04/26 08:57:24;;;;;;;;;16.25;15.00;;;;;13.64;46.72;101303.38;5074273;28;45494;-73
2023/04/26 08:59:52;;;;;;;;;13.75;12.00;;;;;13.60;46.44;101298.16;5074086;28;45731;-72
2023/04/26 09:02:21;;;;;;;;;13.50;12.50;;;;;13.72;45.81;101308.66;5075328;28;45500;-73
2023/04/26 09:04:48;;;;;;;;;17.25;14.50;;;;;13.54;46.42;101306.91;5078713;28;45393;-69
2023/04/26 09:07:37;;;;;;;;;15.00;12.50;;;;;13.51;46.42;101296.41;5078436;27;46229;-71
2023/04/26 09:10:03;;;;;;;;;14.50;12.25;;;;;13.54;47.33;101292.00;5077725;28;45452;-70
2023/04/26 09:12:29;;;;;;;;;10.50;8.25;;;;;13.89;47.39;101284.91;5089778;27;45378;-69
2023/04/26 09:14:55;;;;;;;;;11.50;11.50;;;;;14.11;45.39;101277.81;5073070;28;45771;-69
2023/04/26 09:17:40;;;;;;;;;12.50;10.25;;;;;14.29;46.39;101272.47;5074722;28;45723;-74
2023/04/26 09:20:28;;;;;;;;;11.00;9.75;;;;;14.39;44.30;101297.00;5073174;27;45586;-74
2023/04/26 09:23:05;;;;;;;;;14.50;11.00;;;;;14.18;44.67;101292.72;5073736;27;45569;-70
2023/04/26 09:25:31;;;;;;;;;11.00;9.25;;;;;14.09;44.40;101282.19;5072918;28;45525;-73
2023/04/26 09:27:58;;;;;;;;;10.50;9.00;;;;;14.25;44.18;101296.19;5072555;28;46041;-71
2023/04/26 09:30:25;;;;;;;;;11.50;10.00;;;;;14.49;43.92;101292.56;5076500;28;45457;-76
2023/04/26 09:32:56;;;;;;;;;13.25;9.25;;;;;14.72;42.81;101281.94;5077785;28;45430;-77
2023/04/26 09:35:22;;;;;;;;;9.00;6.25;;;;;14.74;42.08;101280.16;5078406;28;45365;-77
2023/04/26 09:38:07;;;;;;;;;13.25;11.00;;;;;14.98;42.29;101284.38;5077936;28;45508;-79
2023/04/26 09:40:36;;;;;;;;;8.00;6.50;;;;;14.86;41.68;101263.38;5074877;27;45472;-73
2023/04/26 09:43:12;;;;;;;;;7.50;7.50;;;;;15.19;41.30;101297.41;5075885;28;45550;-72
2023/04/26 09:45:48;;;;;;;;;10.50;8.25;;;;;15.40;42.28;101292.81;5076963;27;45657;-80
2023/04/26 09:48:25;;;;;;;;;8.50;6.75;;;;;15.52;40.84;101286.53;5073026;27;45279;-69
2023/04/26 09:50:56;;;;;;;;;10.50;9.25;;;;;15.57;40.26;101276.84;5070628;28;45507;-70
2023/04/26 09:53:46;;;;;;;;;8.50;7.75;;;;;15.84;40.12;101265.13;5077636;28;45439;-70
2023/04/26 09:56:14;;;;;;;;;10.50;8.50;;;;;15.77;39.11;101281.94;5092889;27;45549;-69
2023/04/26 09:58:43;;;;;;;;;8.67;7.33;;;;;15.60;39.12;101271.53;5073269;27;46127;-70
2023/04/26 10:01:10;;;;;;;;;7.25;6.50;;;;;15.69;39.21;101274.06;5073332;27;45818;-69
2023/04/26 10:03:36;;;;;;;;;8.67;7.33;;;;;15.61;38.39;101267.97;5073318;27;45400;-70
2023/04/26 10:06:03;;;;;;;;;5.67;5.67;;;;;15.59;39.53;101261.84;5072034;28;45649;-68
2023/04/26 10:08:31;;;;;;;;;5.67;4.33;;;;;15.81;39.32;101252.84;5088758;27;47045;-71
2023/04/26 10:10:57;;;;;;;;;12.67;9.00;;;;;15.95;39.59;101263.25;5073098;27;45750;-68
2023/04/26 10:13:22;;;;;;;;;10.00;8.67;;;;;15.71;39.24;101258.22;5076100;28;45508;-67
2023/04/26 10:15:49;;;;;;;;;8.67;7.33;;;;;15.62;39.48;101265.34;5078074;28;45483;-73
2023/04/26 10:18:16;;;;;;;;;7.33;7.33;;;;;15.65;38.90;101269.72;5074574;28;45504;-70
2023/04/26 10:20:45;;;;;;;;;7.67;6.33;;;;;15.67;38.96;101258.22;5072901;27;45456;-70
2023/04/26 10:23:24;;;;;;;;;9.00;8.00;;;;;16.00;39.19;101252.63;5089036;27;45534;-71
2023/04/26 10:25:51;;;;;;;;;11.67;9.67;;;;;15.99;39.51;101253.50;5067680;27;45830;-71
2023/04/26 10:28:44;;;;;;;;;10.00;10.00;;;;;15.97;38.91;101258.81;5052584;28;45961;-69
2023/04/26 10:31:10;;;;;;;;;10.00;8.33;;;;;16.11;40.92;101248.06;5085030;27;45539;-74
2023/04/26 10:33:37;;;;;;;;;8.33;7.00;;;;;16.24;40.27;101217.94;5066585;28;45484;-70
2023/04/26 10:36:07;;;;;;;;;8.33;8.33;;;;;16.31;37.99;101250.47;5072394;27;45500;-77
2023/04/26 10:38:37;;;;;;;;;10.33;9.33;;;;;15.93;38.80;101235.97;5102959;27;47800;-71
2023/04/26 10:41:34;;;;;;;;;11.67;8.67;;;;;15.84;39.09;101241.34;5073972;28;45353;-71
2023/04/26 10:44:36;;;;;;;;;9.33;8.67;;;;;15.68;39.46;101240.63;5058190;28;45460;-74
2023/04/26 10:47:04;;;;;;;;;12.67;10.67;;;;;15.49;39.43;101242.56;5058680;28;45451;-71
2023/04/26 10:49:44;;;;;;;;;11.00;9.67;;;;;15.34;40.00;101240.97;5061989;27;46193;-68
2023/04/26 10:52:18;;;;;;;;;7.33;7.33;;;;;15.26;40.30;101222.56;5074571;27;45464;-69
2023/04/26 10:54:49;;;;;;;;;11.00;8.33;;;;;15.27;39.61;101212.88;5075765;28;45724;-71
2023/04/26 10:57:16;;;;;;;;;9.00;8.67;;;;;15.21;40.04;101240.22;5094357;27;45614;-70
2023/04/26 11:00:09;;;;;;;;;9.33;9.00;;;;;15.15;40.71;101240.25;5075790;27;46035;-73
2023/04/26 11:03:05;;;;;;;;;10.00;10.00;;;;;14.98;41.12;101223.72;5075142;28;45609;-69
2023/04/26 11:05:41;;;;;;;;;12.00;10.00;;;;;15.22;40.31;101241.09;5075845;28;45521;-70
2023/04/26 11:08:13;;;;;;;;;14.33;9.00;;;;;15.22;41.04;101227.91;5077508;27;45347;-70
2023/04/26 11:10:39;;;;;;;;;8.67;8.33;;;;;15.27;40.87;101224.31;5080163;27;46017;-70
2023/04/26 11:13:05;;;;;;;;;11.33;6.00;;;;;15.35;40.85;101231.28;5078142;27;45344;-70
2023/04/26 11:15:31;;;;;;;;;11.00;7.67;;;;;15.16;40.78;101215.66;5076034;27;45757;-69
2023/04/26 11:17:57;;;;;;;;;8.00;6.67;;;;;14.93;41.00;101205.28;5077032;27;45371;-70